Detall de PIREP

Printer-friendly versionPDF version

[2010/12/04 18:29:00]
Flight IATA:CT2105
Pilot Number:042
Company ICAO:CAT
Aircraft Type:B738/F
PAX:100
Departing Airport: LEBB
Destination Airport: LEVC
Alternate Airport:LEPA
Online: VATSIM
Route:PPN UM601 MARIO POSSY UN862 MLA UN860 SAURA
Flight Level:FL310
No Slew and time accel
No pause
Crash detect
Detect pilot in Cockpit between each 30 and 45 minutes
18:29 Zero fuel Weight: 118701 Lbs, Fuel Weight: 46023 Lbs
18:29 VATSIM:LEBB 041800Z 18010KT 120V210 CAVOK 08/M02 Q1014 WS ALL RWY NOSIG
18:29 VATSIM:LEVC 041800Z 32004KT CAVOK 06/02 Q1021 NOSIG
18:30 VOICE CATALONIAN/PRACTICE ENGLISH
18:59 Parking Brakes off
19:10 Take-off
19:10 Take off Weight: 163642 Lbs
19:10 Wind: 182 @ 010 Knots Heading: 118
19:10 POS N43 17 48 W002 53 54
19:10 Gear Up: 176 Knots
19:10 Flaps:3 at 176 Knots
19:10 Flaps:2 at 187 Knots
19:12 Flaps:1 at 205 Knots
19:12 Flaps:0 at 227 Knots
19:25 Wind:283@066 Knots Heading: 117 Ground Speed: 498 Knots Altitude 26026 ft
19:28 TOC
19:28 Fuel Weight: 40924 Lb
19:38 TOD
19:38 Fuel Weight: 39939 Lb
19:40 Wind:297@070 Knots Heading: 207 Ground Speed: 366 Knots Altitude 29530 ft
19:47 Flaps:1 at 221 Knots
19:48 Flaps:0 at 245 Knots
19:50 Flaps:1 at 268 Knots
19:50 Flaps:2 at 268 Knots
19:50 Flaps:3 at 267 Knots
19:52 Flaps:4 at 190 Knots
19:54 Flaps:3 at 189 Knots
19:55 Wind:199@014 Knots Heading: 183 Ground Speed: 192 Knots Altitude 7339 ft
19:58 Flaps:2 at 190 Knots
19:59 Flaps:3 at 193 Knots
19:59 Flaps:4 at 196 Knots
20:04 Gear Down: 160 Knots
20:04 Flaps:5 at 160 Knots
20:04 Flaps:6 at 145 Knots
20:04 Flaps:7 at 144 Knots
20:05 Flaps:8 at 140 Knots
20:09 TouchDown:Rate -347 ft/min Speed: 138 Knots
20:09 Land
20:09 Wind:003@002 Knots
20:09 Heading: 300
20:09 Flight Duration: 00:59
20:09 Landing Weight: 156558 Lbs
20:09 POS N39 29 25 W000 29 02
20:12 Parking brakes on
20:12 Block to Block Duration: 01:13
20:12 Final Fuel: 37259 Lbls
20:12 Spent Fuel: 8763 Lbls
20:12 Flight Length: 316 NM
20:12 TOD Land Length: 123 NM

Exportar CSV

Powered by Drupal - Modified by Danger4k